• Join FlightAware (Why Join?)
  • Login
  • US Flag 
12:57PM EDT


 

Airport Tracker/Info


-or-


 

Live Flight TrackerFlight Track Log ✈ PDT4236 ✈ 18-May-2013 ✈ KCLT - KHTS

Flight Track Log - Related Links

Times and Time Zones

All times are in EDT time to prevent confusion due to time zone crossing. See the PDT4236 flight status page for this flight to view local times or setup timezone preferences in your user account.

Time Position Orientation Groundspeed Altitude Reporting Facility
EDT Latitude Longitude Course Direction KTS MPH feet Rate Location/Type
02:17PM 35.1994 -80.9481 340° North 141 162 1,400  Level Atlanta Center
02:18PM 35.1942 -80.9814 259° West 159 183 2,300 1,680 Climbing Atlanta Center
02:19PM 35.1911 -81.0347 266° West 149 171 4,200 1,320 Climbing Atlanta Center
02:20PM 35.3733 -81.0200 338° Northwest  Level FlightAware Approximate
02:20PM 35.2417 -81.0456 350° North 217 250 5,100  Level Atlanta Center
02:21PM 35.4436 -81.0458 347° North  Level FlightAware Approximate
02:21PM 35.3144 -81.0431 North 226 260 7,000  Level Atlanta Center
02:22PM 35.5154 -81.0663 347° North  Level FlightAware Approximate
02:22PM 35.3731 -81.0461 358° North 221 254 8,400  Level Atlanta Center
02:23PM 35.5811 -81.1046 340° North  Level FlightAware Approximate
02:23PM 35.4314 -81.0489 358° North 211 243 10,000  Level Atlanta Center
02:24PM 35.4861 -81.0700 343° North 206 237 11,500 1,440 Climbing Atlanta Center
02:25PM 35.5453 -81.0933 342° North 206 237 12,900 1,440 Climbing Atlanta Center
02:26PM 35.5978 -81.1144 342° North 206 237 14,400 1,380 Climbing Atlanta Center
02:27PM 35.6442 -81.1333 342° North 201 231 15,700 1,200 Climbing Atlanta Center
02:28PM 35.6947 -81.1519 343° North 190 219 16,800 1,080 Climbing Atlanta Center
02:29PM 35.7453 -81.1731 341° North 190 219 17,900 600 Climbing Atlanta Center
02:30PM 35.8000 -81.1967 341° North 190 219 18,000  Climbing Atlanta Center
02:31PM 35.8633 -81.2228 342° North 210 242 18,000  Level Atlanta Center
02:32PM 35.9306 -81.2486 343° North 234 269 18,000  Level Atlanta Center
02:33PM 36.0000 -81.2769 342° North 251 289 18,000  Level Atlanta Center
02:34PM 36.0694 -81.3028 343° North 256 295 18,000  Level Atlanta Center
02:35PM 36.1369 -81.3392 336° Northwest 256 295 18,000  Level Atlanta Center
02:36PM 36.2067 -81.3756 337° Northwest 262 302 18,000  Level Atlanta Center
02:37PM 36.2742 -81.4119 337° Northwest 262 302 18,000  Level Atlanta Center
02:38PM 36.3436 -81.4456 339° North 262 302 18,000  Level Atlanta Center
02:39PM 36.4111 -81.4822 336° Northwest 255 293 18,000  Level Atlanta Center
02:40PM 36.4725 -81.5189 334° Northwest 260 299 18,000  Level Atlanta Center
02:41PM 36.5400 -81.5531 338° Northwest 260 299 18,000  Level Atlanta Center
02:42PM 36.6139 -81.5972 334° Northwest 260 299 18,000  Level Atlanta Center
02:43PM 36.6811 -81.6314 338° Northwest 260 299 18,000  Level Atlanta Center
02:44PM 36.7508 -81.6708 336° Northwest 260 299 18,000  Level Atlanta Center
02:46PM 36.8489 -81.7200 338° Northwest 267 307 18,000  Level Indianapolis Center
02:47PM 36.9161 -81.7567 336° Northwest 265 305 18,000  Level Indianapolis Center
02:48PM 36.9969 -81.8014 336° Northwest 270 311 18,000  Level Indianapolis Center
02:49PM 37.0656 -81.8386 337° Northwest 267 307 18,000  Level Indianapolis Center
02:50PM 37.1331 -81.8753 337° Northwest 264 304 18,000  Level Indianapolis Center
02:51PM 37.1997 -81.9100 337° Northwest 260 299 18,000 -60 Level Indianapolis Center
02:52PM 37.2667 -81.9478 336° Northwest 262 302 17,900 -240 Descending Indianapolis Center
02:53PM 37.3358 -81.9847 337° Northwest 268 308 17,600 -540 Descending Indianapolis Center
02:54PM 37.4064 -82.0239 336° Northwest 275 316 16,900 -960 Descending Indianapolis Center
02:55PM 37.4922 -82.0711 336° Northwest 285 328 15,700 -1,080 Descending Indianapolis Center
02:56PM 37.5650 -82.1106 337° Northwest 284 327 14,700 -1,200 Descending Indianapolis Center
02:57PM 37.6372 -82.1494 337° Northwest 283 326 13,300 -1,500 Descending Indianapolis Center
02:58PM 37.7100 -82.1900 336° Northwest 284 327 11,700 -1,560 Descending Indianapolis Center
02:59PM 37.7806 -82.2300 336° Northwest 281 323 10,200 -1,680 Descending Indianapolis Center
03:00PM 37.8489 -82.2686 336° Northwest 272 313 8,300 -1,860 Descending Indianapolis Center
03:01PM 37.9322 -82.3142 337° Northwest 277 319 6,500 -1,620 Descending Indianapolis Center
03:02PM 38.0006 -82.3531 336° Northwest 273 314 5,100 -1,380 Descending Indianapolis Center
03:03PM 38.0653 -82.3897 336° Northwest 260 299 3,700 -1,080 Descending Indianapolis Center
03:04PM 38.1253 -82.4194 339° North 255 293 3,000 -360 Descending Indianapolis Center
03:06PM 38.1883 -82.4444 343° North 243 280 3,000 -240 Level Indianapolis Center
03:07PM 38.2533 -82.4575 351° North 237 273 2,600 -480 Descending Indianapolis Center
03:08PM 38.3258 -82.4736 350° North 223 257 2,100 -300 Descending Indianapolis Center
03:09PM 38.3619 -82.5200 315° West 190 219 2,100  Level Indianapolis Center
03:10PM 38.3875 -82.5836 297° West 201 231 2,200 60 Climbing Indianapolis Center